Portada
Imágenes satélite Pronóstico 10 díasClimaPredicción Marítima Ciclones Rayo AeropuertosFAQ Noticias Acerca
El tiempo : Europa África América del Norte América del Sur Asia Australia-Oceanía Otros
Idiomas Contacto

Tarbes Lourdes, Francia

Aeropuerto de Tarbes-Lourdes-Pirineos

latitud: 43-11N, longitud: 000-00W, altitud: 379 m


METAR: LFBT 060830Z AUTO VRB02KT 9999 NSC 05/M01 Q1034
TAF: LFBT 060500Z 0606/0706 VRB02KT CAVOK TEMPO 0612/0618 06012KT PROB30 TEMPO 0621/0624 MIFG

Hora: 09:54 (08:54 UTC)

Observación

El informe se hizo hace 24 minutos, a las 08:30 UTC
Viento 2 kt con dirección variable
Temperatura 5°C
Humedad 65%
Presión 1034 hPa
Visibilidad 10 km o más

Cambiar las unidades

Pronóstico

El informe se hizo hace 3 horas y 54 minutos, a las 05:00 UTC
Pronóstico válido del 06 a las 06 UTC al 07 a las 06 UTC
Viento 2 kt con dirección variable
Visibilidad 10 km o más
sin nubes por debajo de 1500 m y sin presencia de cumulonimbus.
Temporalmente
del 06 a las 12 UTC al 06 a las 18 UTC
Viento 12 kt del este-noreste
Probabilidad 30% :
Temporalmente
del 06 a las 21 UTC al 06 a las 24 UTC
Niebla baja
La información que se ofrece en estas páginas está sujeta a una cláusula de exención de responsabilidad
El tiempo : Europa África América del Norte América del Sur Asia Australia-Oceanía Otros
Imágenes satélite Pronóstico 10 díasClimaPredicción Marítima Ciclones Rayo AeropuertosFAQ Idiomas Contacto Noticias Acerca